Time;durP1;ratioP1;P1;durP2;ratioP2;P2;SDS_P1;SDS_P2;PMS_P1;PMS_P2;Temp;Humidity;BMP_temperature;BMP_pressure;BME280_temperature;BME280_humidity;BME280_pressure;Samples;Min_cycle;Max_cycle;Signal;HPM_P1;HPM_P2
2022/07/21 00:00:15;;;;;;;0.00;0.00;;;24.00;61.90;;;25.62;53.39;101712.53;2059174;28;20617;-61
2022/07/21 00:01:17;;;;;;;0.00;0.00;;;23.90;62.10;;;25.61;53.52;101710.97;2063812;28;20054;-61
2022/07/21 00:02:21;;;;;;;0.00;0.00;;;23.90;62.40;;;25.61;53.77;101710.97;2056911;28;20081;-61
2022/07/21 00:03:23;;;;;;;0.00;0.00;;;23.90;62.80;;;25.59;53.96;101699.53;2056651;28;20058;-60
2022/07/21 00:04:28;;;;;;;0.00;0.00;;;23.90;63.10;;;25.56;54.01;101686.56;2057237;28;20061;-61
2022/07/21 00:05:31;;;;;;;0.00;0.00;;;23.80;63.30;;;25.55;53.79;101682.22;2064548;28;20105;-61
2022/07/21 00:06:35;;;;;;;0.10;0.00;;;23.80;63.60;;;25.53;53.84;101677.09;2064615;28;20646;-61
2022/07/21 00:07:37;;;;;;;0.00;0.00;;;23.80;63.70;;;25.50;54.14;101679.94;2056393;28;20065;-61
2022/07/21 00:08:40;;;;;;;0.00;0.00;;;23.70;63.90;;;25.46;54.28;101681.97;2056109;28;20055;-61
2022/07/21 00:09:43;;;;;;;0.00;0.00;;;23.60;64.10;;;25.43;54.13;101691.13;2056887;28;20058;-60
2022/07/21 00:10:47;;;;;;;0.00;0.00;;;23.60;64.40;;;25.39;54.60;101695.91;2056741;28;20113;-61
2022/07/21 00:11:49;;;;;;;0.00;0.00;;;23.60;64.60;;;25.37;54.95;101696.34;2056738;28;20051;-61
2022/07/21 00:12:54;;;;;;;0.00;0.00;;;23.50;64.90;;;25.36;54.69;101705.06;2057450;28;20050;-60
2022/07/21 00:13:58;;;;;;;0.00;0.00;;;23.50;65.20;;;25.38;54.56;101703.44;2063631;28;20050;-60
2022/07/21 00:15:05;;;;;;;0.00;0.00;;;23.60;65.30;;;25.38;54.65;101692.38;2062671;28;20462;-62
2022/07/21 00:16:08;;;;;;;0.00;0.00;;;23.60;65.30;;;25.39;55.27;101705.00;2063964;28;20054;-60
2022/07/21 00:17:12;;;;;;;0.00;0.00;;;23.60;65.30;;;25.41;54.83;101708.13;2061639;28;20058;-60
2022/07/21 00:18:16;;;;;;;0.00;0.00;;;23.60;65.30;;;25.40;55.21;101709.34;2056851;28;20054;-61
2022/07/21 00:19:20;;;;;;;0.00;0.00;;;23.60;65.40;;;25.40;55.33;101712.13;2064149;28;20508;-61
2022/07/21 00:20:27;;;;;;;0.00;0.00;;;23.70;65.80;;;25.37;55.60;101703.88;2056587;28;20055;-61
2022/07/21 00:21:31;;;;;;;0.00;0.00;;;23.70;66.00;;;25.39;56.24;101709.75;2062457;28;20055;-60
2022/07/21 00:22:33;;;;;;;0.00;0.00;;;23.70;66.20;;;25.39;56.40;101704.22;2072427;28;20049;-61
2022/07/21 00:23:37;;;;;;;0.00;0.00;;;23.70;66.30;;;25.39;56.24;101712.50;2064749;28;20054;-61
2022/07/21 00:24:39;;;;;;;0.10;0.10;;;23.70;66.40;;;25.38;55.92;101702.66;2056406;28;20065;-61
2022/07/21 00:25:43;;;;;;;0.00;0.00;;;23.70;66.50;;;25.38;56.05;101700.69;2067438;28;20409;-61
2022/07/21 00:26:45;;;;;;;0.00;0.00;;;23.70;66.50;;;25.40;55.94;101703.81;2056722;28;20446;-61
2022/07/21 00:27:49;;;;;;;0.00;0.00;;;23.70;66.50;;;25.41;55.93;101702.59;2056334;28;20047;-60
2022/07/21 00:28:51;;;;;;;0.00;0.00;;;23.70;66.40;;;25.38;55.84;101697.91;2062121;28;20050;-60
2022/07/21 00:29:55;;;;;;;0.00;0.00;;;23.80;66.40;;;25.33;56.54;101690.06;2071505;28;20057;-60
2022/07/21 00:30:58;;;;;;;0.00;0.00;;;23.70;66.50;;;25.34;56.43;101701.94;2069599;28;20065;-62
2022/07/21 00:32:03;;;;;;;0.03;0.00;;;23.70;66.50;;;25.30;56.28;101692.88;2065319;28;20498;-61
2022/07/21 00:33:06;;;;;;;0.00;0.00;;;23.80;66.50;;;25.29;56.71;101707.91;2064317;28;20065;-61
2022/07/21 00:34:09;;;;;;;0.00;0.00;;;23.80;66.30;;;25.24;56.26;101711.94;2064215;28;20054;-61
2022/07/21 00:35:12;;;;;;;0.00;0.00;;;23.80;66.00;;;25.15;56.69;101711.69;2057275;28;20057;-61
2022/07/21 00:36:18;;;;;;;0.00;0.00;;;23.70;66.00;;;25.03;57.15;101715.81;2056246;28;20119;-60
2022/07/21 00:37:23;;;;;;;0.00;0.00;;;23.60;66.10;;;24.95;57.08;101710.81;2057021;28;20055;-60
2022/07/21 00:38:27;;;;;;;0.00;0.00;;;23.50;66.30;;;24.86;57.28;101708.56;2058214;28;20066;-61
2022/07/21 00:39:29;;;;;;;0.00;0.00;;;23.40;66.80;;;24.79;57.29;101694.84;2050146;28;20054;-60
2022/07/21 00:40:33;;;;;;;0.00;0.00;;;23.30;67.30;;;24.68;57.77;101683.19;2064325;28;20053;-61
2022/07/21 00:41:35;;;;;;;0.00;0.00;;;23.20;67.60;;;24.60;58.64;101689.97;2058366;28;20580;-61
2022/07/21 00:42:39;;;;;;;0.00;0.00;;;23.20;68.10;;;24.56;59.07;101678.19;2055816;28;20054;-61
2022/07/21 00:43:41;;;;;;;0.00;0.00;;;23.20;68.50;;;24.56;58.88;101683.69;2057078;28;20065;-63
2022/07/21 00:44:45;;;;;;;0.00;0.00;;;23.20;68.90;;;24.58;59.17;101678.56;2056733;28;20047;-61
2022/07/21 00:45:48;;;;;;;0.00;0.00;;;23.20;68.90;;;24.63;59.19;101678.09;2057393;28;20050;-61
2022/07/21 00:46:52;;;;;;;0.00;0.00;;;23.20;69.10;;;24.66;59.11;101682.81;2055336;28;20055;-61
2022/07/21 00:47:55;;;;;;;0.00;0.00;;;23.20;69.20;;;24.69;58.99;101679.22;2048415;28;20051;-60
2022/07/21 00:48:59;;;;;;;0.00;0.00;;;23.20;69.20;;;24.68;59.04;101672.13;2056540;28;20061;-60
2022/07/21 00:50:05;;;;;;;0.00;0.00;;;23.20;70.20;;;24.68;59.47;101671.34;2056824;28;20062;-60
2022/07/21 00:51:09;;;;;;;0.00;0.00;;;23.20;69.70;;;24.69;59.10;101672.91;2056230;28;20057;-60
2022/07/21 00:52:13;;;;;;;0.00;0.00;;;23.20;69.80;;;24.67;59.47;101676.06;2057064;28;20058;-62
2022/07/21 00:53:17;;;;;;;0.00;0.00;;;23.20;69.70;;;24.62;59.84;101662.72;2060152;28;20050;-60
2022/07/21 00:54:20;;;;;;;0.00;0.00;;;23.20;70.00;;;24.61;60.03;101672.19;2057035;28;20050;-62
2022/07/21 00:55:24;;;;;;;0.00;0.00;;;23.20;70.10;;;24.62;59.82;101673.78;2068327;28;20042;-61
2022/07/21 00:56:26;;;;;;;0.00;0.00;;;23.20;70.30;;;24.64;59.77;101681.66;2070373;28;20054;-61
2022/07/21 00:57:30;;;;;;;0.00;0.00;;;23.20;70.90;;;24.65;59.93;101683.19;2065029;28;20073;-60
2022/07/21 00:58:34;;;;;;;0.00;0.00;;;23.20;70.20;;;24.60;59.75;101683.66;2059818;28;20047;-61
2022/07/21 00:59:36;;;;;;;0.00;0.00;;;23.20;70.20;;;24.51;60.41;101677.88;2057087;28;20058;-61
2022/07/21 01:00:41;;;;;;;0.00;0.00;;;23.10;70.20;;;24.45;60.63;101674.78;2056868;28;20616;-61
2022/07/21 01:01:43;;;;;;;0.00;0.00;;;23.10;70.50;;;24.41;60.74;101676.03;2051120;28;20434;-61
2022/07/21 01:02:47;;;;;;;0.00;0.00;;;23.10;70.80;;;24.36;60.83;101671.75;2056660;28;20061;-60
2022/07/21 01:03:50;;;;;;;0.00;0.00;;;23.10;70.70;;;24.31;61.16;101674.19;2057237;28;20503;-61
2022/07/21 01:04:53;;;;;;;0.00;0.00;;;23.10;70.90;;;24.27;61.21;101668.72;2056635;28;20057;-62
2022/07/21 01:05:59;;;;;;;0.00;0.00;;;23.00;71.00;;;24.23;61.77;101678.25;2056845;28;20058;-61
2022/07/21 01:07:04;;;;;;;0.00;0.00;;;23.10;71.30;;;24.22;61.63;101669.16;2060673;28;20061;-60
2022/07/21 01:08:10;;;;;;;0.00;0.00;;;23.00;71.50;;;24.16;61.75;101667.28;2065003;28;20516;-60
2022/07/21 01:09:12;;;;;;;0.00;0.00;;;22.90;71.60;;;24.07;62.06;101670.53;2048234;29;20562;-61
2022/07/21 01:10:17;;;;;;;0.00;0.00;;;22.90;71.60;;;24.01;62.35;101669.41;2047303;28;20058;-61
2022/07/21 01:11:23;;;;;;;0.00;0.00;;;22.90;71.80;;;23.98;62.56;101661.19;2056905;28;20058;-61
2022/07/21 01:12:27;;;;;;;0.00;0.00;;;22.90;72.00;;;23.97;62.48;101665.94;2056270;28;20094;-61
2022/07/21 01:13:29;;;;;;;0.00;0.00;;;22.90;72.20;;;24.01;62.76;101666.66;2057496;28;20058;-61
2022/07/21 01:14:34;;;;;;;0.00;0.00;;;22.90;72.50;;;24.06;62.77;101665.41;2063706;28;20494;-61
2022/07/21 01:15:38;;;;;;;0.00;0.00;;;22.90;72.50;;;24.05;62.52;101672.94;2062066;28;20435;-61
2022/07/21 01:16:41;;;;;;;0.00;0.00;;;22.90;72.40;;;23.96;63.01;101658.81;2063772;28;20541;-61
2022/07/21 01:17:46;;;;;;;0.00;0.00;;;22.90;72.40;;;23.96;62.99;101672.59;2064656;28;20065;-61
2022/07/21 01:18:49;;;;;;;0.03;0.03;;;22.90;72.50;;;23.94;62.96;101666.72;2059429;28;20054;-61
2022/07/21 01:19:53;;;;;;;0.00;0.00;;;22.80;72.60;;;23.94;63.19;101672.25;2067474;28;20602;-61
2022/07/21 01:21:02;;;;;;;0.00;0.00;;;22.80;73.30;;;23.92;63.24;101677.38;2065241;28;20532;-61
2022/07/21 01:22:07;;;;;;;0.00;0.00;;;22.80;72.90;;;23.93;63.24;101686.44;2063628;28;20161;-61
2022/07/21 01:23:10;;;;;;;0.00;0.00;;;22.70;73.10;;;23.95;63.09;101695.06;2056995;28;20573;-60
2022/07/21 01:24:15;;;;;;;0.00;0.00;;;22.60;73.40;;;23.91;62.98;101708.94;2056370;28;20459;-61
2022/07/21 01:25:19;;;;;;;0.00;0.00;;;22.60;73.60;;;23.87;63.39;101702.66;2056535;28;20055;-64
2022/07/21 01:26:22;;;;;;;0.00;0.00;;;22.60;73.90;;;23.83;63.65;101703.88;2056898;28;20046;-60
2022/07/21 01:27:26;;;;;;;0.00;0.00;;;22.50;74.00;;;23.80;64.31;101710.22;2057904;28;20077;-60
2022/07/21 01:28:30;;;;;;;0.00;0.00;;;22.50;74.20;;;23.80;63.82;101710.97;2064727;28;20116;-60
2022/07/21 01:29:33;;;;;;;0.00;0.00;;;22.40;74.30;;;23.73;63.72;101705.56;2064630;28;20526;-60
2022/07/21 01:30:36;;;;;;;0.00;0.00;;;22.40;74.40;;;23.70;64.22;101711.09;2061460;28;20494;-61
2022/07/21 01:31:41;;;;;;;0.00;0.00;;;22.40;74.40;;;23.66;64.28;101707.59;2056522;28;20110;-60
2022/07/21 01:32:45;;;;;;;0.00;0.00;;;22.40;74.50;;;23.67;64.03;101707.19;2061625;28;20062;-60
2022/07/21 01:33:49;;;;;;;0.00;0.00;;;22.40;74.60;;;23.67;64.48;101707.19;2063427;28;20054;-61
2022/07/21 01:34:53;;;;;;;0.00;0.00;;;22.50;74.70;;;23.62;64.78;101715.91;2064742;28;20054;-61
2022/07/21 01:35:56;;;;;;;0.00;0.00;;;22.50;74.80;;;23.62;64.78;101713.16;2055713;28;20564;-60
2022/07/21 01:36:59;;;;;;;0.05;0.00;;;22.50;74.70;;;23.59;64.71;101716.72;2056409;28;20502;-60
2022/07/21 01:38:03;;;;;;;0.00;0.00;;;22.40;74.60;;;23.51;64.96;101712.47;2058124;28;20521;-60
2022/07/21 01:42:05;;;;;;;0.00;0.00;;;22.40;75.40;;;23.48;65.03;101722.31;2023996;29;20139;-60
2022/07/21 01:43:09;;;;;;;0.00;0.00;;;22.30;75.50;;;23.45;65.61;101728.63;2023987;29;20095;-61
2022/07/21 01:44:14;;;;;;;0.00;0.00;;;22.30;75.90;;;23.42;65.78;101718.44;2025203;29;20052;-61
2022/07/21 01:45:18;;;;;;;0.00;0.00;;;22.30;75.80;;;23.41;65.66;101721.59;2031808;29;20060;-60
2022/07/21 01:46:21;;;;;;;0.00;0.00;;;22.20;76.00;;;23.40;66.14;101726.31;2031765;29;20052;-61
2022/07/21 01:47:24;;;;;;;0.00;0.00;;;22.20;76.50;;;23.41;66.57;101718.84;2032830;28;20528;-61
2022/07/21 01:48:27;;;;;;;0.10;0.10;;;22.20;76.90;;;23.41;66.74;101718.84;2064682;28;20047;-61
2022/07/21 01:49:30;;;;;;;0.03;0.03;;;22.10;77.50;;;23.40;66.72;101722.78;2060952;28;20454;-62
2022/07/21 01:50:33;;;;;;;0.10;0.10;;;22.10;77.80;;;23.39;67.00;101718.44;2056534;28;20050;-62
2022/07/21 01:51:37;;;;;;;0.10;0.10;;;22.10;77.90;;;23.34;66.33;101718.91;2062654;28;20057;-62
2022/07/21 01:52:39;;;;;;;0.10;0.10;;;22.10;77.50;;;23.30;66.71;101716.19;2054109;28;20057;-61
2022/07/21 01:53:44;;;;;;;0.10;0.10;;;22.10;77.50;;;23.25;66.65;101719.34;2054489;28;20537;-63
2022/07/21 01:54:47;;;;;;;0.05;0.05;;;22.10;77.40;;;23.20;66.74;101725.25;2059509;28;20054;-62
2022/07/21 01:55:50;;;;;;;0.10;0.10;;;22.00;77.30;;;23.15;67.02;101722.19;2056019;28;20055;-62
2022/07/21 01:56:53;;;;;;;0.10;0.10;;;21.90;77.50;;;23.09;66.81;101726.53;2048305;28;20059;-62
2022/07/21 01:57:57;;;;;;;0.10;0.10;;;21.90;77.60;;;23.03;67.65;101719.88;2055973;28;20105;-61
2022/07/21 01:59:00;;;;;;;0.10;0.10;;;21.90;78.20;;;22.96;68.32;101722.69;2056542;28;20054;-61
2022/07/21 02:00:08;;;;;;;0.10;0.10;;;21.80;78.70;;;22.91;68.28;101720.34;2056223;28;20054;-61
2022/07/21 02:01:11;;;;;;;0.10;0.10;;;21.80;78.70;;;22.85;68.30;101727.47;2056470;28;20065;-61
2022/07/21 02:02:14;;;;;;;0.10;0.10;;;21.70;78.60;;;22.80;68.00;101728.66;2056556;28;20427;-60
2022/07/21 02:03:17;;;;;;;0.10;0.10;;;21.70;78.80;;;22.76;68.57;101727.13;2055737;28;20411;-61
2022/07/21 02:04:20;;;;;;;0.10;0.10;;;21.60;78.80;;;22.72;68.44;101723.63;2056732;28;20054;-61
2022/07/21 02:05:23;;;;;;;0.00;0.00;;;21.60;79.00;;;22.71;68.80;101727.53;2056012;28;20121;-61
2022/07/21 02:06:28;;;;;;;0.10;0.10;;;21.50;79.20;;;22.68;68.75;101720.88;2057376;28;20510;-61
2022/07/21 02:07:30;;;;;;;0.10;0.10;;;21.50;79.90;;;22.69;69.31;101716.94;2048216;28;20047;-60
2022/07/21 02:08:34;;;;;;;0.10;0.10;;;21.50;79.90;;;22.72;69.31;101726.38;2055924;28;20046;-61
2022/07/21 02:09:38;;;;;;;0.10;0.10;;;21.60;80.40;;;22.75;69.79;101729.09;2064274;28;20058;-61
2022/07/21 02:10:41;;;;;;;0.10;0.10;;;21.60;81.00;;;22.75;70.04;101729.09;2064248;28;20054;-62
2022/07/21 02:11:45;;;;;;;0.10;0.10;;;21.60;81.50;;;22.75;70.94;101720.06;2056617;28;20050;-65
2022/07/21 02:12:47;;;;;;;0.10;0.10;;;21.60;82.20;;;22.70;71.18;101728.72;2056844;28;20419;-61
2022/07/21 02:13:51;;;;;;;0.10;0.10;;;21.60;82.00;;;22.60;71.49;101722.09;2056330;28;20047;-61
2022/07/21 02:14:54;;;;;;;0.10;0.10;;;21.60;82.20;;;22.63;72.04;101721.28;2056674;28;20491;-63
2022/07/21 02:15:58;;;;;;;0.10;0.10;;;21.70;82.40;;;22.65;71.93;101724.44;2056655;28;20054;-61
2022/07/21 02:17:00;;;;;;;0.10;0.10;;;21.70;82.10;;;22.67;71.31;101724.03;2056199;28;20054;-61
2022/07/21 02:18:04;;;;;;;0.10;0.10;;;21.70;81.80;;;22.66;70.88;101723.22;2057144;28;20082;-62
2022/07/21 02:19:08;;;;;;;0.10;0.10;;;21.80;81.10;;;22.67;70.70;101721.28;2064934;28;20500;-61
2022/07/21 02:20:12;;;;;;;0.10;0.10;;;21.70;80.70;;;22.63;71.48;101720.53;2060448;28;20055;-63
2022/07/21 02:21:15;;;;;;;0.00;0.00;;;21.70;81.30;;;22.62;70.99;101724.44;2056644;28;20131;-63
2022/07/21 02:22:19;;;;;;;0.10;0.10;;;21.70;81.00;;;22.60;71.12;101724.06;2063933;28;20046;-61
2022/07/21 02:23:23;;;;;;;0.10;0.10;;;21.70;81.10;;;22.58;71.45;101716.19;2062720;28;20054;-62
2022/07/21 02:24:29;;;;;;;0.10;0.10;;;21.70;81.90;;;22.55;72.04;101707.97;2056933;28;20469;-61
2022/07/21 02:25:33;;;;;;;0.10;0.10;;;21.70;82.70;;;22.60;71.93;101713.03;2057060;28;20055;-61
2022/07/21 02:26:36;;;;;;;0.20;0.20;;;21.70;82.70;;;22.62;71.78;101714.22;2064997;28;20422;-61
2022/07/21 02:27:40;;;;;;;0.10;0.10;;;21.70;82.30;;;22.44;71.54;101685.19;2060057;28;20058;-61
2022/07/21 02:28:43;;;;;;;0.10;0.10;;;21.70;81.80;;;22.60;71.70;101710.28;2056642;28;20058;-62
2022/07/21 02:29:46;;;;;;;0.10;0.10;;;21.70;81.80;;;22.60;70.95;101693.78;2072876;28;20417;-62
2022/07/21 02:30:50;;;;;;;0.10;0.10;;;21.70;81.30;;;22.62;71.79;101691.41;2064730;28;20062;-62
2022/07/21 02:31:54;;;;;;;0.10;0.10;;;21.60;82.00;;;22.64;72.18;101692.59;2056773;28;20065;-63
2022/07/21 02:32:56;;;;;;;0.10;0.10;;;21.60;82.40;;;22.64;72.42;101689.03;2055894;28;20063;-64
2022/07/21 02:34:00;;;;;;;0.10;0.10;;;21.70;82.90;;;22.65;72.64;101685.09;2056071;28;20067;-61
2022/07/21 02:35:04;;;;;;;0.20;0.20;;;21.70;83.50;;;22.63;73.28;101677.25;2056040;28;20070;-61
2022/07/21 02:36:09;;;;;;;0.20;0.20;;;21.70;83.70;;;22.69;72.80;101686.63;2056079;28;20065;-61
2022/07/21 02:37:11;;;;;;;0.20;0.20;;;21.70;83.70;;;22.73;73.38;101684.66;2064347;28;20061;-62
2022/07/21 02:38:15;;;;;;;0.20;0.20;;;21.80;83.90;;;22.72;73.55;101674.06;2059475;28;20480;-63
2022/07/21 02:39:18;;;;;;;0.10;0.10;;;21.80;84.10;;;22.80;73.24;101670.84;2060874;28;20089;-61
2022/07/21 02:40:22;;;;;;;0.10;0.10;;;21.80;84.10;;;22.86;73.18;101668.44;2056793;28;20503;-62
2022/07/21 02:41:25;;;;;;;0.10;0.10;;;21.80;84.10;;;22.88;72.82;101666.84;2063442;28;20045;-62
2022/07/21 02:42:29;;;;;;;0.10;0.10;;;21.90;84.10;;;22.92;73.45;101664.06;2064442;28;20498;-62
2022/07/21 02:43:31;;;;;;;0.10;0.10;;;21.90;84.10;;;22.95;72.95;101660.50;2056045;28;20054;-61
2022/07/21 02:44:36;;;;;;;0.10;0.10;;;21.90;84.10;;;22.97;73.43;101658.94;2048220;28;20056;-61
2022/07/21 02:45:41;;;;;;;0.20;0.20;;;21.90;84.30;;;23.00;73.67;101651.81;2056662;28;20486;-62
2022/07/21 02:46:44;;;;;;;0.10;0.10;;;21.90;84.50;;;23.01;72.88;101651.41;2040434;29;20472;-61
2022/07/21 02:47:52;;;;;;;0.10;0.10;;;22.00;83.90;;;23.03;72.53;101651.00;2041034;28;20056;-64
2022/07/21 02:48:55;;;;;;;0.10;0.10;;;21.90;84.00;;;23.02;72.16;101643.94;2057125;28;20065;-61
2022/07/21 02:49:58;;;;;;;0.13;0.13;;;21.90;83.30;;;23.03;72.21;101653.75;2056560;28;20429;-61
2022/07/21 02:51:02;;;;;;;0.20;0.20;;;21.90;83.40;;;23.01;71.97;101653.38;2057984;28;20089;-66
2022/07/21 02:52:09;;;;;;;0.13;0.13;;;21.90;83.30;;;23.02;72.40;101649.44;2064427;28;20058;-61
2022/07/21 02:53:17;;;;;;;0.10;0.10;;;21.80;83.40;;;23.01;72.30;101645.13;2049691;28;20047;-62
2022/07/21 02:54:21;;;;;;;0.20;0.20;;;21.80;83.70;;;23.03;71.91;101651.00;2050246;28;20207;-61
2022/07/21 02:55:24;;;;;;;0.20;0.20;;;21.80;83.40;;;23.02;71.45;101653.00;2064822;28;20097;-61
2022/07/21 02:56:29;;;;;;;0.10;0.10;;;21.80;83.20;;;23.03;71.87;101654.56;2064406;28;20051;-61
2022/07/21 02:57:32;;;;;;;0.10;0.10;;;21.80;83.40;;;23.06;72.10;101650.19;2055097;28;20415;-61
2022/07/21 02:58:35;;;;;;;0.20;0.20;;;21.80;83.90;;;23.03;72.41;101651.81;2047922;28;20044;-61
2022/07/21 02:59:38;;;;;;;0.20;0.20;;;21.80;83.80;;;23.03;72.20;101645.50;2056282;28;20506;-61
2022/07/21 03:00:45;;;;;;;0.10;0.10;;;21.80;83.80;;;23.03;72.07;101653.75;2056828;28;20494;-61
2022/07/21 03:01:47;;;;;;;0.13;0.13;;;21.80;83.40;;;22.93;71.25;101646.38;2059541;28;20066;-60
2022/07/21 03:02:51;;;;;;;0.20;0.20;;;21.80;82.60;;;22.98;71.12;101645.94;2056632;28;20109;-60
2022/07/21 03:03:55;;;;;;;0.20;0.20;;;21.80;82.80;;;22.99;71.74;101647.50;2056252;28;20106;-65
2022/07/21 03:04:57;;;;;;;0.20;0.20;;;21.80;83.00;;;22.93;71.46;101629.84;2056763;28;20070;-60
2022/07/21 03:06:01;;;;;;;0.10;0.10;;;21.80;83.10;;;22.99;71.55;101636.50;2065339;28;20062;-61
2022/07/21 03:07:04;;;;;;;0.10;0.10;;;21.80;83.00;;;23.00;71.01;101635.28;2061786;28;20474;-60
2022/07/21 03:08:09;;;;;;;0.20;0.20;;;21.80;83.00;;;23.01;71.74;101636.84;2057895;28;20055;-60
2022/07/21 03:09:12;;;;;;;0.10;0.10;;;21.80;83.60;;;22.85;71.29;101611.81;2057870;28;20055;-65
2022/07/21 03:10:15;;;;;;;0.10;0.10;;;21.80;82.90;;;22.86;71.54;101619.69;2060016;28;20078;-60
2022/07/21 03:11:19;;;;;;;0.20;0.20;;;21.80;82.90;;;22.93;71.71;101632.63;2066273;28;20062;-60
2022/07/21 03:12:22;;;;;;;0.10;0.10;;;21.80;82.60;;;22.74;71.96;101611.88;2061286;28;20416;-60
2022/07/21 03:13:26;;;;;;;0.20;0.20;;;21.80;82.70;;;22.94;71.95;101636.94;2058033;28;20054;-61
2022/07/21 03:14:28;;;;;;;0.10;0.10;;;21.90;82.80;;;22.93;72.00;101636.13;2055811;28;20050;-62
2022/07/21 03:15:32;;;;;;;0.17;0.17;;;21.80;82.80;;;22.86;72.01;101619.69;2049880;28;20450;-61
2022/07/21 03:16:36;;;;;;;0.13;0.13;;;21.90;82.60;;;22.89;71.67;101629.88;2062809;28;20515;-60
2022/07/21 03:17:38;;;;;;;0.10;0.10;;;21.80;82.00;;;22.89;70.80;101632.63;2066322;28;20442;-61
2022/07/21 03:18:42;;;;;;;0.15;0.15;;;21.80;81.60;;;22.87;71.16;101635.00;2065675;28;20513;-60
2022/07/21 03:19:44;;;;;;;0.10;0.10;;;21.80;81.60;;;22.85;71.37;101633.84;2064778;28;20518;-61
2022/07/21 03:20:48;;;;;;;0.13;0.13;;;21.80;81.80;;;22.78;70.98;101623.66;2058179;28;20446;-61
2022/07/21 03:21:50;;;;;;;0.10;0.10;;;21.80;81.60;;;22.78;71.01;101633.88;2055196;28;20054;-61
2022/07/21 03:22:54;;;;;;;0.20;0.20;;;21.80;81.60;;;22.77;71.36;101637.84;2049089;29;20082;-61
2022/07/21 03:23:57;;;;;;;0.20;0.20;;;21.80;82.60;;;22.79;71.72;101641.75;2050004;28;20058;-62
2022/07/21 03:25:00;;;;;;;0.20;0.20;;;21.80;82.40;;;22.80;71.28;101632.28;2061644;28;20054;-61
2022/07/21 03:26:04;;;;;;;0.20;0.20;;;21.80;82.10;;;22.79;71.10;101640.94;2066196;28;20395;-61
2022/07/21 03:27:07;;;;;;;0.10;0.10;;;21.70;81.80;;;22.75;71.22;101635.50;2058741;28;20073;-61
2022/07/21 03:28:12;;;;;;;0.20;0.20;;;21.70;81.70;;;22.70;71.14;101624.09;2058099;28;20514;-61
2022/07/21 03:29:14;;;;;;;0.20;0.20;;;21.70;82.10;;;22.79;71.54;101640.94;2061767;28;20521;-61
2022/07/21 03:30:19;;;;;;;0.15;0.15;;;21.80;82.60;;;22.82;71.71;101634.63;2066173;28;20422;-61
2022/07/21 03:31:21;;;;;;;0.10;0.10;;;21.80;82.80;;;22.87;71.69;101636.97;2066003;28;20058;-61
2022/07/21 03:32:25;;;;;;;0.17;0.17;;;21.70;82.70;;;22.91;71.24;101640.50;2058360;28;20100;-61
2022/07/21 03:33:27;;;;;;;0.10;0.10;;;21.80;82.50;;;22.94;71.50;101645.19;2060592;28;20054;-61
2022/07/21 03:34:31;;;;;;;0.10;0.10;;;21.70;82.80;;;22.95;71.79;101644.00;2066026;28;20053;-61
2022/07/21 03:35:35;;;;;;;0.10;0.10;;;21.70;82.90;;;22.96;71.70;101635.31;2065599;28;20093;-60
2022/07/21 03:36:39;;;;;;;0.10;0.10;;;21.80;83.20;;;22.99;71.68;101647.50;2064754;28;20085;-62
2022/07/21 03:37:43;;;;;;;0.10;0.10;;;21.80;83.00;;;22.96;71.17;101645.56;2058022;28;20415;-66
2022/07/21 03:38:46;;;;;;;0.10;0.10;;;21.80;82.80;;;22.97;71.04;101645.16;2057758;28;20503;-61
2022/07/21 03:39:49;;;;;;;0.10;0.10;;;21.80;82.60;;;22.95;71.27;101652.25;2054909;28;20054;-61
2022/07/21 03:40:53;;;;;;;0.10;0.10;;;21.80;82.30;;;22.89;71.45;101651.13;2057029;28;20134;-61
2022/07/21 03:41:55;;;;;;;0.10;0.10;;;21.80;82.30;;;22.88;70.84;101652.31;2057937;28;20078;-61
2022/07/21 03:43:01;;;;;;;0.10;0.10;;;21.70;81.90;;;22.88;70.94;101655.06;2057979;28;20057;-60
2022/07/21 03:44:05;;;;;;;0.10;0.10;;;21.70;81.90;;;22.88;70.99;101655.06;2057160;28;20138;-61
2022/07/21 03:45:11;;;;;;;0.10;0.10;;;21.60;81.90;;;22.85;71.10;101650.38;2057188;28;20093;-61
2022/07/21 03:46:13;;;;;;;0.10;0.10;;;21.50;82.10;;;22.82;70.84;101651.94;2057488;28;20518;-61
2022/07/21 03:47:17;;;;;;;0.10;0.10;;;21.50;82.30;;;22.80;71.15;101648.03;2057360;28;20109;-62
2022/07/21 03:48:20;;;;;;;0.10;0.10;;;21.50;82.40;;;22.79;71.33;101649.22;2057820;28;20525;-61
2022/07/21 03:49:22;;;;;;;0.10;0.10;;;21.50;82.70;;;22.79;71.34;101652.75;2057644;28;20097;-61
2022/07/21 03:50:27;;;;;;;0.10;0.10;;;21.40;82.80;;;22.82;71.26;101653.91;2059742;28;20061;-61
2022/07/21 03:51:29;;;;;;;0.20;0.20;;;21.40;83.00;;;22.80;71.07;101651.56;2065919;28;20395;-61
2022/07/21 03:52:33;;;;;;;0.20;0.20;;;21.40;83.10;;;22.76;71.36;101650.03;2065648;28;20506;-61
2022/07/21 03:53:36;;;;;;;0.17;0.17;;;21.40;83.30;;;22.71;71.49;101644.94;2065394;28;20112;-60
2022/07/21 03:54:39;;;;;;;0.20;0.20;;;21.50;83.50;;;22.62;72.07;101650.13;2066005;28;20570;-62
2022/07/21 03:55:43;;;;;;;0.20;0.20;;;21.50;83.40;;;22.56;72.32;101648.97;2065836;28;20057;-61
2022/07/21 03:56:45;;;;;;;0.10;0.10;;;21.50;83.30;;;22.49;72.37;101643.47;2065772;28;20050;-62
2022/07/21 03:57:51;;;;;;;0.10;0.10;;;21.50;83.20;;;22.48;72.88;101647.41;2057613;28;20065;-61
2022/07/21 03:58:54;;;;;;;0.20;0.20;;;21.50;83.30;;;22.45;72.89;101648.22;2057709;28;20134;-61
2022/07/21 04:00:00;;;;;;;0.20;0.20;;;21.50;83.30;;;22.37;72.72;101641.19;2057401;28;20078;-65
2022/07/21 04:01:13;;;;;;;0.20;0.20;;;21.50;83.00;;;22.40;72.89;101645.88;2062416;28;20054;-64
2022/07/21 04:02:16;;;;;;;0.20;0.20;;;21.40;83.10;;;22.39;72.78;101647.09;2059963;28;20458;-61
2022/07/21 04:03:19;;;;;;;0.20;0.20;;;21.40;83.20;;;22.44;72.25;101641.16;2064664;28;20069;-61
2022/07/21 04:04:22;;;;;;;0.20;0.20;;;21.30;83.30;;;22.44;72.89;101643.91;2057196;28;20055;-60
2022/07/21 04:05:26;;;;;;;0.20;0.20;;;21.30;83.50;;;22.44;72.18;101644.69;2057645;28;20105;-62
2022/07/21 04:06:28;;;;;;;0.20;0.20;;;21.30;83.30;;;22.43;72.40;101639.56;2065388;28;20074;-61
2022/07/21 04:07:32;;;;;;;0.10;0.10;;;21.20;83.30;;;22.40;72.44;101634.88;2065094;28;20053;-61
2022/07/21 04:08:39;;;;;;;0.20;0.20;;;21.20;83.40;;;22.42;72.18;101640.78;2057830;28;20047;-61
2022/07/21 04:09:41;;;;;;;0.17;0.17;;;21.20;83.60;;;22.41;72.20;101637.22;2063726;28;20509;-61
2022/07/21 04:10:47;;;;;;;0.20;0.20;;;21.20;84.20;;;22.40;72.10;101629.38;2064433;28;20531;-60
2022/07/21 04:11:50;;;;;;;0.20;0.20;;;21.20;83.60;;;22.37;72.11;101635.69;2058034;28;20047;-61
2022/07/21 04:12:54;;;;;;;0.20;0.20;;;21.20;84.10;;;22.36;72.68;101628.63;2057439;28;20055;-61
2022/07/21 04:13:57;;;;;;;0.20;0.20;;;21.20;83.70;;;22.35;72.61;101630.59;2057812;28;20446;-61
2022/07/21 04:15:02;;;;;;;0.10;0.10;;;21.20;83.80;;;22.37;72.25;101630.97;2065200;28;20058;-61
2022/07/21 04:16:07;;;;;;;0.20;0.20;;;21.20;83.70;;;22.33;72.56;101626.66;2062746;28;20063;-62
2022/07/21 04:17:09;;;;;;;0.13;0.13;;;21.20;83.80;;;22.31;72.72;101629.81;2048889;28;20071;-61
2022/07/21 04:18:13;;;;;;;0.20;0.20;;;21.20;83.80;;;22.31;72.35;101627.06;2048609;28;20055;-61
2022/07/21 04:19:15;;;;;;;0.20;0.20;;;21.20;83.80;;;22.32;72.47;101627.84;2064328;28;20058;-60
2022/07/21 04:20:19;;;;;;;0.20;0.20;;;21.20;84.00;;;22.34;72.98;101626.28;2057856;28;20138;-61
2022/07/21 04:21:21;;;;;;;0.22;0.22;;;21.20;84.00;;;22.38;72.95;101627.03;2057501;28;20085;-61
2022/07/21 04:22:24;;;;;;;0.20;0.20;;;21.20;84.20;;;22.37;72.48;101619.16;2057782;28;20137;-60
2022/07/21 04:23:27;;;;;;;0.30;0.30;;;21.20;84.10;;;22.43;72.80;101621.09;2057597;28;20050;-60
2022/07/21 04:24:30;;;;;;;0.30;0.30;;;21.20;84.00;;;22.43;72.83;101625.81;2059276;28;20137;-61
2022/07/21 04:25:33;;;;;;;0.30;0.30;;;21.30;84.10;;;22.43;72.30;101625.81;2065653;28;20046;-61
2022/07/21 04:26:36;;;;;;;0.20;0.20;;;21.20;83.90;;;22.43;72.30;101628.56;2056778;28;20315;-61
2022/07/21 04:27:39;;;;;;;0.20;0.20;;;21.20;84.60;;;22.41;72.99;101630.94;2056358;28;20556;-61